createdAt,value
2023-04-29T00:01:40.014Z,69.70
2023-04-29T00:04:08.152Z,70.14
2023-04-29T00:06:35.566Z,71.32
2023-04-29T00:09:04.386Z,73.59
2023-04-29T00:11:31.686Z,71.83
2023-04-29T00:13:59.165Z,74.45
2023-04-29T00:16:27.589Z,72.72
2023-04-29T00:18:55.237Z,71.78
2023-04-29T00:21:22.729Z,77.18
2023-04-29T00:23:49.946Z,74.54
2023-04-29T00:26:17.127Z,75.39
2023-04-29T00:28:47.267Z,75.84
2023-04-29T00:31:14.853Z,76.82
2023-04-29T00:33:42.721Z,77.25
2023-04-29T00:36:10.176Z,81.38
2023-04-29T00:38:37.445Z,80.94
2023-04-29T00:41:04.959Z,79.33
2023-04-29T00:43:32.231Z,83.43
2023-04-29T00:45:59.705Z,84.36
2023-04-29T00:48:26.964Z,83.00
2023-04-29T00:50:54.174Z,84.97
2023-04-29T00:53:23.378Z,86.74
2023-04-29T00:55:52.097Z,85.88
2023-04-29T00:58:20.187Z,86.16
2023-04-29T01:00:49.636Z,86.24
2023-04-29T01:03:17.007Z,92.60
2023-04-29T01:05:52.303Z,92.40
2023-04-29T01:08:43.620Z,90.23
2023-04-29T01:11:13.061Z,90.89
2023-04-29T01:13:54.584Z,95.48
2023-04-29T01:16:48.901Z,96.64
2023-04-29T01:19:57.075Z,96.84
2023-04-29T01:22:24.787Z,100.00
2023-04-29T01:24:52.145Z,100.00
2023-04-29T01:27:39.857Z,100.00
2023-04-29T01:30:57.160Z,100.00
2023-04-29T01:33:40.984Z,100.00
2023-04-29T01:36:31.470Z,100.00
2023-04-29T01:39:26.597Z,100.00
2023-04-29T01:42:29.882Z,100.00
2023-04-29T01:45:03.470Z,100.00
2023-04-29T01:47:31.135Z,100.00
2023-04-29T01:49:58.467Z,100.00
2023-04-29T01:52:25.731Z,100.00
2023-04-29T01:54:57.510Z,100.00
2023-04-29T01:57:27.297Z,100.00
2023-04-29T02:00:05.730Z,100.00
2023-04-29T02:02:45.452Z,100.00
2023-04-29T02:05:22.780Z,100.00
2023-04-29T02:07:56.851Z,100.00
2023-04-29T02:10:24.362Z,100.00
2023-04-29T02:12:59.911Z,99.46
2023-04-29T02:15:28.849Z,87.91
2023-04-29T02:17:56.301Z,96.97
2023-04-29T02:20:23.793Z,96.76
2023-04-29T02:22:51.541Z,92.12
2023-04-29T02:25:18.880Z,96.44
2023-04-29T02:27:46.101Z,91.01
2023-04-29T02:30:13.318Z,89.45
2023-04-29T02:32:41.417Z,90.19
2023-04-29T02:35:09.230Z,88.25
2023-04-29T02:37:36.370Z,84.89
2023-04-29T02:40:03.978Z,93.63
2023-04-29T02:42:31.585Z,93.28
2023-04-29T02:45:01.572Z,94.54
2023-04-29T02:47:28.943Z,92.95
2023-04-29T02:49:56.187Z,89.38
2023-04-29T02:52:23.464Z,87.71
2023-04-29T02:54:50.890Z,85.74
2023-04-29T02:57:18.558Z,86.17
2023-04-29T02:59:45.876Z,86.35
2023-04-29T03:02:13.089Z,89.37
2023-04-29T03:04:41.126Z,95.43
2023-04-29T03:07:08.419Z,93.68
2023-04-29T03:09:37.108Z,96.06
2023-04-29T03:12:04.930Z,98.33
2023-04-29T03:14:32.237Z,95.90
2023-04-29T03:16:59.746Z,97.97
2023-04-29T03:19:27.005Z,93.27
2023-04-29T03:21:54.275Z,95.84
2023-04-29T03:24:22.189Z,96.72
2023-04-29T03:26:49.390Z,91.68
2023-04-29T03:29:19.615Z,91.12
2023-04-29T03:31:47.680Z,92.81
2023-04-29T03:34:15.410Z,93.17
2023-04-29T03:36:48.563Z,86.72
2023-04-29T03:39:15.821Z,85.75
2023-04-29T03:41:43.486Z,84.93
2023-04-29T03:44:10.904Z,88.72
2023-04-29T03:46:39.717Z,92.62
2023-04-29T03:49:06.959Z,94.34
2023-04-29T03:51:34.480Z,97.61
2023-04-29T03:54:14.048Z,95.04
2023-04-29T03:56:41.764Z,93.96
2023-04-29T03:59:09.516Z,94.16
2023-04-29T04:01:38.440Z,90.20
2023-04-29T04:04:05.909Z,91.61
2023-04-29T04:06:33.816Z,94.50
2023-04-29T04:09:01.142Z,95.36
2023-04-29T04:11:30.750Z,94.10
2023-04-29T04:14:01.150Z,95.80
2023-04-29T04:16:28.727Z,94.71
2023-04-29T04:18:56.030Z,94.38
2023-04-29T04:21:23.672Z,95.28
2023-04-29T04:24:00.973Z,98.06
2023-04-29T04:26:29.684Z,95.27
2023-04-29T04:29:08.139Z,94.95
2023-04-29T04:31:49.636Z,91.23
2023-04-29T04:34:18.914Z,89.60
2023-04-29T04:36:48.673Z,85.28
2023-04-29T04:39:16.037Z,85.24
2023-04-29T04:41:43.486Z,85.20
2023-04-29T04:44:10.964Z,84.78
2023-04-29T04:46:52.268Z,84.31
2023-04-29T04:49:34.536Z,86.41
2023-04-29T04:52:02.153Z,89.56
2023-04-29T04:54:29.381Z,87.99
2023-04-29T04:57:06.350Z,89.81
2023-04-29T04:59:34.515Z,88.37
2023-04-29T05:02:02.060Z,81.96
2023-04-29T05:04:29.916Z,82.91
2023-04-29T05:06:57.344Z,83.11
2023-04-29T05:09:27.649Z,85.55
2023-04-29T05:11:56.132Z,86.12
2023-04-29T05:14:23.517Z,89.02
2023-04-29T05:16:51.642Z,91.89
2023-04-29T05:19:20.174Z,87.49
2023-04-29T05:21:47.391Z,88.61
2023-04-29T05:24:15.398Z,89.21
2023-04-29T05:26:44.143Z,86.93
2023-04-29T05:29:12.290Z,89.74
2023-04-29T05:31:51.487Z,86.54
2023-04-29T05:34:18.890Z,83.48
2023-04-29T05:36:46.692Z,79.47
2023-04-29T05:39:14.076Z,81.32
2023-04-29T05:41:42.405Z,81.97
2023-04-29T05:44:17.381Z,81.89
2023-04-29T05:46:48.849Z,81.36
2023-04-29T05:49:16.830Z,82.50
2023-04-29T05:51:44.265Z,83.64
2023-04-29T05:54:11.504Z,80.24
2023-04-29T05:56:38.841Z,79.09
2023-04-29T05:59:06.041Z,78.32
2023-04-29T06:01:33.832Z,78.16
2023-04-29T06:04:01.702Z,77.28
2023-04-29T06:07:02.627Z,74.44
2023-04-29T06:09:48.722Z,75.91
2023-04-29T06:12:16.418Z,74.73
2023-04-29T06:14:46.355Z,74.05
2023-04-29T06:17:14.148Z,76.45
2023-04-29T06:19:42.231Z,75.90
2023-04-29T06:22:10.528Z,74.53
2023-04-29T06:24:40.625Z,71.75
2023-04-29T06:27:09.230Z,69.73
2023-04-29T06:29:37.677Z,63.13
2023-04-29T06:32:05.288Z,56.67
2023-04-29T06:34:33.083Z,56.60
2023-04-29T06:37:29.723Z,58.23
2023-04-29T06:40:26.383Z,60.52
2023-04-29T06:43:20.090Z,59.30
2023-04-29T06:46:08.671Z,59.63
2023-04-29T06:48:40.767Z,62.00
2023-04-29T06:51:08.358Z,65.12
2023-04-29T06:53:37.676Z,64.46
2023-04-29T06:56:05.779Z,66.51
2023-04-29T06:58:33.139Z,63.98
2023-04-29T07:01:01.207Z,64.20
2023-04-29T07:03:28.736Z,61.71
2023-04-29T07:05:57.739Z,63.68
2023-04-29T07:08:25.326Z,61.11
2023-04-29T07:10:57.763Z,60.03
2023-04-29T07:13:26.138Z,59.35
2023-04-29T07:15:53.472Z,57.03
2023-04-29T07:18:20.934Z,54.10
2023-04-29T07:20:48.558Z,54.43
2023-04-29T07:23:16.086Z,57.42
2023-04-29T07:25:43.428Z,54.95
2023-04-29T07:28:10.692Z,58.92
2023-04-29T07:30:38.728Z,59.14
2023-04-29T07:33:06.217Z,56.85
2023-04-29T07:35:34.418Z,55.64
2023-04-29T07:38:01.949Z,56.44
2023-04-29T07:40:31.983Z,58.69
2023-04-29T07:42:59.617Z,57.67
2023-04-29T07:45:26.929Z,59.22
2023-04-29T07:47:54.366Z,60.85
2023-04-29T07:50:22.759Z,61.37
2023-04-29T07:52:50.134Z,61.67
2023-04-29T07:55:17.857Z,60.80
2023-04-29T07:57:45.184Z,61.84
2023-04-29T08:00:13.125Z,61.90
2023-04-29T08:02:44.050Z,62.56
2023-04-29T08:05:14.407Z,62.78
2023-04-29T08:07:41.919Z,60.92
2023-04-29T08:10:09.919Z,60.26
2023-04-29T08:12:38.025Z,61.96
2023-04-29T08:15:07.801Z,62.37
2023-04-29T08:17:37.622Z,60.94
2023-04-29T08:20:05.911Z,60.81
2023-04-29T08:22:33.832Z,59.53
2023-04-29T08:25:03.227Z,58.18
2023-04-29T08:27:31.186Z,57.64
2023-04-29T08:29:58.727Z,57.70
2023-04-29T08:32:26.135Z,53.53
2023-04-29T08:34:53.707Z,43.32
2023-04-29T08:37:21.187Z,42.38
2023-04-29T08:39:49.114Z,46.44
2023-04-29T08:42:21.250Z,42.54
2023-04-29T08:44:50.308Z,38.04
2023-04-29T08:47:18.146Z,36.53
2023-04-29T08:49:45.576Z,37.38
2023-04-29T08:52:13.077Z,34.70
2023-04-29T08:54:41.552Z,34.52
2023-04-29T08:57:12.166Z,36.63
2023-04-29T08:59:39.577Z,37.14
2023-04-29T09:02:13.239Z,36.52
2023-04-29T09:04:52.719Z,35.76
2023-04-29T09:07:20.612Z,35.22
2023-04-29T09:09:49.680Z,38.60
2023-04-29T09:12:17.021Z,42.54
2023-04-29T09:14:44.516Z,45.46
2023-04-29T09:17:11.850Z,44.76
2023-04-29T09:19:39.230Z,48.79
2023-04-29T09:22:08.294Z,50.22
2023-04-29T09:24:35.936Z,51.40
2023-04-29T09:27:04.627Z,55.00
2023-04-29T09:29:33.253Z,55.13
2023-04-29T09:32:00.909Z,57.65
2023-04-29T09:34:37.495Z,57.39
2023-04-29T09:37:05.249Z,57.57
2023-04-29T09:39:40.132Z,58.60
2023-04-29T09:42:09.128Z,58.84
2023-04-29T09:44:36.504Z,59.42
2023-04-29T09:47:09.191Z,58.01
2023-04-29T09:49:41.209Z,60.01
2023-04-29T09:52:15.116Z,61.35
2023-04-29T09:54:44.460Z,60.27
2023-04-29T09:57:15.850Z,59.60
2023-04-29T09:59:43.679Z,60.96
2023-04-29T10:02:16.167Z,63.75
2023-04-29T10:04:47.804Z,63.99
2023-04-29T10:07:20.325Z,63.82
2023-04-29T10:09:49.130Z,66.45
2023-04-29T10:12:21.092Z,68.25
2023-04-29T10:15:04.388Z,71.25
2023-04-29T10:17:52.997Z,74.81
2023-04-29T10:20:25.501Z,80.99
2023-04-29T10:22:56.715Z,90.55
2023-04-29T10:25:26.306Z,100.00
2023-04-29T10:27:55.323Z,100.00
2023-04-29T10:30:23.171Z,100.00
2023-04-29T10:32:52.783Z,100.00
2023-04-29T10:35:25.672Z,100.00
2023-04-29T10:37:54.320Z,100.00
2023-04-29T10:40:40.419Z,100.00
2023-04-29T10:43:07.874Z,100.00
2023-04-29T10:45:36.460Z,100.00
2023-04-29T10:48:06.689Z,100.00
2023-04-29T10:51:03.555Z,100.00
2023-04-29T10:53:31.290Z,100.00
2023-04-29T10:56:11.335Z,100.00
2023-04-29T10:58:46.811Z,100.00
2023-04-29T11:01:18.108Z,100.00
2023-04-29T11:03:58.943Z,100.00
2023-04-29T11:06:41.584Z,100.00
2023-04-29T11:09:22.598Z,100.00
2023-04-29T11:11:56.423Z,100.00
2023-04-29T11:14:43.383Z,100.00
2023-04-29T11:17:16.732Z,100.00
2023-04-29T11:19:50.453Z,100.00
2023-04-29T11:22:24.240Z,100.00
2023-04-29T11:25:01.035Z,100.00
2023-04-29T11:27:33.332Z,100.00
2023-04-29T11:30:03.924Z,100.00
2023-04-29T11:32:37.111Z,100.00
2023-04-29T11:35:16.155Z,100.00
2023-04-29T11:37:45.935Z,100.00
2023-04-29T11:40:14.832Z,100.00
2023-04-29T11:42:46.589Z,99.96
2023-04-29T11:45:15.271Z,92.60
2023-04-29T11:47:48.051Z,88.26
2023-04-29T11:50:19.299Z,83.47
2023-04-29T11:52:48.479Z,78.31
2023-04-29T11:55:16.070Z,78.03
2023-04-29T11:57:43.925Z,79.05
2023-04-29T12:00:13.748Z,80.58
2023-04-29T12:02:46.481Z,84.01
2023-04-29T12:05:15.843Z,82.59
2023-04-29T12:07:43.780Z,85.56
2023-04-29T12:10:12.612Z,86.30
2023-04-29T12:12:47.566Z,89.05
2023-04-29T12:15:15.526Z,87.65
2023-04-29T12:17:43.944Z,83.31
2023-04-29T12:20:12.869Z,84.81
2023-04-29T12:22:43.617Z,82.84
2023-04-29T12:25:11.513Z,77.97
2023-04-29T12:27:44.245Z,81.50
2023-04-29T12:30:12.952Z,78.31
2023-04-29T12:32:41.052Z,79.86
2023-04-29T12:35:19.417Z,70.81
2023-04-29T12:37:52.836Z,74.09
2023-04-29T12:40:21.076Z,71.25
2023-04-29T12:42:49.032Z,68.95
2023-04-29T12:45:34.134Z,65.10
2023-04-29T12:48:03.323Z,68.35
2023-04-29T12:50:38.869Z,65.83
2023-04-29T12:53:08.256Z,70.24
2023-04-29T12:55:37.581Z,65.24
2023-04-29T12:58:06.015Z,65.69
2023-04-29T13:00:35.066Z,64.44
2023-04-29T13:03:02.659Z,67.54
2023-04-29T13:05:30.069Z,64.97
2023-04-29T13:07:57.691Z,65.53
2023-04-29T13:10:25.051Z,68.18
2023-04-29T13:12:52.277Z,62.10
2023-04-29T13:15:19.793Z,64.94
2023-04-29T13:17:47.341Z,68.26
2023-04-29T13:20:15.419Z,68.46
2023-04-29T13:22:43.699Z,63.32
2023-04-29T13:25:16.384Z,64.26
2023-04-29T13:27:44.321Z,66.16
2023-04-29T13:30:12.150Z,67.43
2023-04-29T13:32:45.000Z,66.11
2023-04-29T13:35:18.782Z,62.92
2023-04-29T13:37:46.672Z,62.83
2023-04-29T13:40:20.362Z,59.12
2023-04-29T13:42:50.462Z,59.94
2023-04-29T13:45:24.262Z,61.71
2023-04-29T13:50:54.046Z,64.13
2023-04-29T13:56:34.822Z,60.65
2023-04-29T14:03:27.593Z,59.76
2023-04-29T14:05:55.079Z,59.14
2023-04-29T14:08:22.306Z,64.33
2023-04-29T14:10:49.587Z,60.40
2023-04-29T14:13:17.800Z,62.20
2023-04-29T14:15:44.988Z,64.97
2023-04-29T14:18:12.552Z,64.18
2023-04-29T14:20:39.825Z,62.74
2023-04-29T14:23:07.083Z,66.18
2023-04-29T14:25:34.372Z,63.36
2023-04-29T14:28:01.773Z,59.37
2023-04-29T14:30:29.060Z,60.36
2023-04-29T14:32:56.470Z,61.29
2023-04-29T14:35:23.881Z,62.96
2023-04-29T14:37:51.529Z,61.09
2023-04-29T14:40:18.765Z,59.87
2023-04-29T14:42:46.006Z,59.42
2023-04-29T14:45:13.376Z,59.74
2023-04-29T14:47:40.717Z,60.92
2023-04-29T14:50:09.263Z,59.37
2023-04-29T14:52:36.724Z,60.76
2023-04-29T14:55:04.583Z,60.44
2023-04-29T14:57:31.874Z,62.00
2023-04-29T14:59:59.191Z,61.89
2023-04-29T15:02:26.823Z,63.17
2023-04-29T15:04:54.993Z,63.07
2023-04-29T15:07:23.066Z,65.03
2023-04-29T15:09:50.960Z,68.17
2023-04-29T15:12:20.105Z,68.75
2023-04-29T15:14:47.694Z,70.41
2023-04-29T15:17:15.018Z,72.97
2023-04-29T15:19:42.396Z,74.14
2023-04-29T15:22:09.718Z,72.97
2023-04-29T15:24:37.309Z,69.91
2023-04-29T15:27:04.702Z,73.34
2023-04-29T15:29:34.400Z,74.92
2023-04-29T15:32:01.971Z,73.43
2023-04-29T15:34:29.302Z,74.58
2023-04-29T15:36:57.054Z,76.36
2023-04-29T15:39:24.519Z,75.02
2023-04-29T15:41:53.711Z,75.46
2023-04-29T15:44:21.089Z,79.11
2023-04-29T15:46:48.706Z,77.72
2023-04-29T15:49:16.028Z,79.47
2023-04-29T15:51:43.198Z,80.44
2023-04-29T15:54:10.726Z,78.40
2023-04-29T15:56:38.884Z,78.12
2023-04-29T15:59:06.537Z,79.24
2023-04-29T16:01:36.201Z,78.97
2023-04-29T16:04:03.958Z,80.82
2023-04-29T16:06:31.367Z,83.03
2023-04-29T16:08:58.854Z,85.85
2023-04-29T16:11:26.410Z,83.78
2023-04-29T16:13:54.050Z,86.21
2023-04-29T16:16:21.964Z,92.01
2023-04-29T16:18:49.489Z,88.04
2023-04-29T16:21:17.603Z,87.68
2023-04-29T16:23:45.073Z,87.34
2023-04-29T16:26:12.638Z,89.18
2023-04-29T16:28:40.731Z,91.00
2023-04-29T16:31:07.966Z,88.73
2023-04-29T16:33:35.301Z,89.88
2023-04-29T16:36:03.139Z,91.01
2023-04-29T16:38:30.515Z,89.96
2023-04-29T16:40:58.029Z,91.22
2023-04-29T16:43:25.319Z,92.79
2023-04-29T16:45:52.640Z,92.29
2023-04-29T16:51:08.693Z,92.92
2023-04-29T16:53:36.809Z,91.63
2023-04-29T16:56:04.420Z,91.29
2023-04-29T16:58:31.773Z,91.61
2023-04-29T17:00:59.248Z,92.96
2023-04-29T17:03:26.549Z,93.76
2023-04-29T17:05:53.963Z,95.03
2023-04-29T17:08:21.384Z,97.43
2023-04-29T17:10:48.654Z,100.00
2023-04-29T17:13:16.501Z,96.31
2023-04-29T17:15:43.861Z,98.50
2023-04-29T17:18:11.334Z,92.19
2023-04-29T17:20:39.153Z,98.49
2023-04-29T17:23:06.554Z,98.96
2023-04-29T17:25:33.799Z,94.98
2023-04-29T17:28:01.229Z,95.57
2023-04-29T17:30:28.723Z,99.02
2023-04-29T17:32:56.231Z,99.90
2023-04-29T17:35:23.537Z,97.87
2023-04-29T17:37:50.869Z,100.00
2023-04-29T17:40:18.538Z,100.00
2023-04-29T17:42:45.938Z,100.00
2023-04-29T17:45:13.395Z,100.00
2023-04-29T17:47:40.644Z,100.00
2023-04-29T17:50:08.478Z,100.00
2023-04-29T17:52:36.119Z,100.00
2023-04-29T17:55:03.706Z,100.00
2023-04-29T17:57:31.189Z,100.00
2023-04-29T17:59:58.510Z,100.00
2023-04-29T18:02:26.002Z,100.00
2023-04-29T18:04:54.078Z,100.00
2023-04-29T18:07:21.375Z,100.00
2023-04-29T18:09:48.653Z,100.00
2023-04-29T18:12:16.005Z,100.00
2023-04-29T18:14:43.483Z,100.00
2023-04-29T18:17:10.896Z,100.00
2023-04-29T18:19:38.145Z,100.00
2023-04-29T18:22:06.310Z,100.00
2023-04-29T18:24:33.787Z,100.00
2023-04-29T18:27:02.399Z,100.00
2023-04-29T18:29:29.676Z,100.00
2023-04-29T18:31:57.143Z,100.00
2023-04-29T18:34:24.546Z,100.00
2023-04-29T18:36:52.328Z,100.00
2023-04-29T18:39:19.788Z,100.00
2023-04-29T18:41:47.113Z,100.00
2023-04-29T18:44:14.441Z,100.00
2023-04-29T18:46:41.854Z,100.00
2023-04-29T18:49:11.825Z,100.00
2023-04-29T18:51:40.575Z,100.00
2023-04-29T18:54:08.107Z,100.00
2023-04-29T18:56:36.830Z,100.00
2023-04-29T18:59:05.574Z,100.00
2023-04-29T19:01:33.017Z,100.00
2023-04-29T19:04:04.578Z,100.00
2023-04-29T19:06:32.705Z,100.00
2023-04-29T19:09:00.793Z,100.00
2023-04-29T19:11:28.291Z,100.00
2023-04-29T19:13:56.054Z,100.00
2023-04-29T19:16:25.118Z,100.00
2023-04-29T19:18:52.832Z,100.00
2023-04-29T19:21:20.861Z,100.00
2023-04-29T19:23:48.248Z,100.00
2023-04-29T19:26:15.935Z,100.00
2023-04-29T19:28:43.361Z,100.00
2023-04-29T19:31:11.838Z,100.00
2023-04-29T19:33:39.404Z,100.00
2023-04-29T19:36:07.638Z,100.00
2023-04-29T19:38:35.058Z,100.00
2023-04-29T19:41:02.556Z,100.00
2023-04-29T19:43:30.152Z,100.00
2023-04-29T19:45:57.823Z,100.00
2023-04-29T19:48:25.264Z,100.00
2023-04-29T19:50:52.907Z,100.00
2023-04-29T19:53:20.379Z,100.00
2023-04-29T19:55:49.481Z,100.00
2023-04-29T19:58:18.754Z,100.00
2023-04-29T20:00:46.391Z,100.00
2023-04-29T20:03:13.745Z,100.00
2023-04-29T20:05:41.899Z,100.00
2023-04-29T20:08:09.415Z,100.00
2023-04-29T20:10:37.029Z,100.00
2023-04-29T20:13:04.431Z,100.00
2023-04-29T20:15:31.676Z,100.00
2023-04-29T20:17:59.174Z,100.00
2023-04-29T20:20:26.999Z,100.00
2023-04-29T20:22:58.165Z,100.00
2023-04-29T20:25:25.953Z,100.00
2023-04-29T20:27:54.114Z,100.00
2023-04-29T20:30:21.827Z,100.00
2023-04-29T20:32:49.173Z,100.00
2023-04-29T20:35:17.042Z,100.00
2023-04-29T20:37:44.685Z,100.00
2023-04-29T20:40:12.335Z,100.00
2023-04-29T20:42:39.998Z,100.00
2023-04-29T20:45:08.460Z,100.00
2023-04-29T20:47:35.728Z,100.00
2023-04-29T20:50:04.811Z,100.00
2023-04-29T20:52:32.318Z,100.00
2023-04-29T20:55:00.567Z,100.00
2023-04-29T20:57:28.160Z,100.00
2023-04-29T20:59:55.963Z,100.00
2023-04-29T21:02:23.568Z,100.00
2023-04-29T21:04:51.141Z,100.00
2023-04-29T21:07:18.362Z,100.00
2023-04-29T21:09:46.185Z,100.00
2023-04-29T21:12:14.955Z,100.00
2023-04-29T21:14:42.834Z,100.00
2023-04-29T21:17:10.409Z,100.00
2023-04-29T21:19:37.870Z,100.00
2023-04-29T21:22:05.696Z,100.00
2023-04-29T21:24:32.913Z,100.00
2023-04-29T21:27:00.196Z,100.00
2023-04-29T21:29:27.474Z,100.00
2023-04-29T21:31:54.907Z,100.00
2023-04-29T21:34:22.172Z,100.00
2023-04-29T21:36:49.397Z,100.00
2023-04-29T21:39:16.819Z,100.00
2023-04-29T21:41:44.303Z,100.00
2023-04-29T21:44:13.209Z,100.00
2023-04-29T21:46:40.666Z,100.00
2023-04-29T21:49:08.611Z,100.00
2023-04-29T21:51:36.195Z,100.00
2023-04-29T21:54:08.544Z,100.00
2023-04-29T21:56:36.357Z,100.00
2023-04-29T21:59:04.012Z,100.00
2023-04-29T22:01:48.381Z,100.00
2023-04-29T22:04:16.992Z,100.00
2023-04-29T22:06:44.295Z,100.00
2023-04-29T22:09:11.628Z,100.00
2023-04-29T22:11:39.211Z,100.00
2023-04-29T22:14:06.774Z,100.00
2023-04-29T22:16:36.004Z,100.00
2023-04-29T22:19:04.588Z,100.00
2023-04-29T22:21:31.888Z,100.00
2023-04-29T22:23:59.510Z,100.00
2023-04-29T22:26:26.918Z,100.00
2023-04-29T22:28:54.984Z,100.00
2023-04-29T22:31:22.319Z,100.00
2023-04-29T22:33:49.613Z,100.00
2023-04-29T22:36:16.980Z,100.00
2023-04-29T22:38:44.372Z,100.00
2023-04-29T22:41:11.933Z,100.00
2023-04-29T22:43:39.113Z,100.00
2023-04-29T22:46:06.369Z,100.00
2023-04-29T22:48:33.562Z,100.00
2023-04-29T22:51:01.096Z,100.00
2023-04-29T22:53:28.420Z,100.00
2023-04-29T22:55:58.623Z,100.00
2023-04-29T22:58:26.756Z,100.00
2023-04-29T23:00:59.283Z,100.00
2023-04-29T23:03:27.695Z,100.00
2023-04-29T23:05:59.713Z,100.00
2023-04-29T23:08:30.138Z,100.00
2023-04-29T23:10:57.446Z,100.00
2023-04-29T23:13:24.874Z,100.00
2023-04-29T23:15:57.347Z,100.00
2023-04-29T23:18:24.675Z,100.00
2023-04-29T23:20:51.946Z,100.00
2023-04-29T23:23:19.361Z,100.00
2023-04-29T23:25:46.854Z,100.00
2023-04-29T23:28:14.293Z,100.00
2023-04-29T23:30:41.565Z,100.00
2023-04-29T23:33:09.210Z,100.00
2023-04-29T23:35:36.738Z,100.00
2023-04-29T23:38:03.953Z,100.00
2023-04-29T23:40:31.846Z,100.00
2023-04-29T23:42:59.179Z,100.00
2023-04-29T23:45:26.351Z,100.00
2023-04-29T23:47:53.602Z,100.00
2023-04-29T23:50:20.891Z,100.00
2023-04-29T23:52:48.168Z,100.00
2023-04-29T23:55:15.438Z,100.00
2023-04-29T23:57:42.732Z,100.00
